Astor, Florida
Current Conditions -  °F | °C
As of 6:50 PM on Friday 28 Nov 2014 (Local Time) from KOMN Reporting Station
Clear Clear  
Wind Chill:   Ceiling: Unl
Heat Index:   Visibility: 10mi
Dew Point:   Wind: 5mph
Humidity: 82%   Direction: 320°NW
Pressure: 30.29"   Gusts: NA
Location:  29.15°N, 81.53°W
Report Text: KOMN 282350Z 32004KT 10SM SKC 09/06 A3029 RMK LAST
Loading
Personal Weather Stations






























Interactive Weather Map New forecast layout! Learn more

10-Day Weather Forecast

Advertisements
Track Severe Weather on mobile